sensor_id;sensor_type;location;lat;lon;timestamp;temperature;humidity
25949;DHT22;13961;51.178;4.448;2024-03-07T00:00:11;11.30;99.90
25949;DHT22;13961;51.178;4.448;2024-03-07T00:02:45;11.30;99.90
25949;DHT22;13961;51.178;4.448;2024-03-07T00:05:11;11.30;99.90
25949;DHT22;13961;51.178;4.448;2024-03-07T00:07:40;11.30;99.90
25949;DHT22;13961;51.178;4.448;2024-03-07T00:10:07;11.20;99.90
25949;DHT22;13961;51.178;4.448;2024-03-07T00:12:34;11.20;99.90
25949;DHT22;13961;51.178;4.448;2024-03-07T00:15:01;11.20;99.90
25949;DHT22;13961;51.178;4.448;2024-03-07T00:17:28;11.10;99.90
25949;DHT22;13961;51.178;4.448;2024-03-07T00:19:54;11.00;99.90
25949;DHT22;13961;51.178;4.448;2024-03-07T00:22:20;11.00;99.90
25949;DHT22;13961;51.178;4.448;2024-03-07T00:24:45;11.00;99.90
25949;DHT22;13961;51.178;4.448;2024-03-07T00:27:13;11.00;99.90
25949;DHT22;13961;51.178;4.448;2024-03-07T00:29:40;10.90;99.90
25949;DHT22;13961;51.178;4.448;2024-03-07T00:32:06;11.00;99.90
25949;DHT22;13961;51.178;4.448;2024-03-07T00:34:32;10.90;99.90
25949;DHT22;13961;51.178;4.448;2024-03-07T00:36:59;10.80;99.90
25949;DHT22;13961;51.178;4.448;2024-03-07T00:39:28;10.80;99.90
25949;DHT22;13961;51.178;4.448;2024-03-07T00:41:54;10.80;99.90
25949;DHT22;13961;51.178;4.448;2024-03-07T00:44:19;10.80;99.90
25949;DHT22;13961;51.178;4.448;2024-03-07T00:46:45;10.80;99.90
25949;DHT22;13961;51.178;4.448;2024-03-07T00:49:11;10.80;99.90
25949;DHT22;13961;51.178;4.448;2024-03-07T00:51:37;10.70;99.90
25949;DHT22;13961;51.178;4.448;2024-03-07T00:54:02;10.70;99.90
25949;DHT22;13961;51.178;4.448;2024-03-07T00:56:28;10.70;99.90
25949;DHT22;13961;51.178;4.448;2024-03-07T00:58:54;10.70;99.90
25949;DHT22;13961;51.178;4.448;2024-03-07T01:01:19;10.60;99.90
25949;DHT22;13961;51.178;4.448;2024-03-07T01:03:45;10.60;99.90
25949;DHT22;13961;51.178;4.448;2024-03-07T01:06:11;10.60;99.90
25949;DHT22;13961;51.178;4.448;2024-03-07T01:08:38;10.60;99.90
25949;DHT22;13961;51.178;4.448;2024-03-07T01:11:04;10.60;99.90
25949;DHT22;13961;51.178;4.448;2024-03-07T01:13:36;10.60;99.90
25949;DHT22;13961;51.178;4.448;2024-03-07T01:16:02;10.60;99.90
25949;DHT22;13961;51.178;4.448;2024-03-07T01:18:27;10.60;99.90
25949;DHT22;13961;51.178;4.448;2024-03-07T01:20:53;10.50;99.90
25949;DHT22;13961;51.178;4.448;2024-03-07T01:23:20;10.90;99.90
25949;DHT22;13961;51.178;4.448;2024-03-07T01:25:46;10.90;99.90
25949;DHT22;13961;51.178;4.448;2024-03-07T01:28:11;10.80;99.90
25949;DHT22;13961;51.178;4.448;2024-03-07T01:30:39;10.50;99.90
25949;DHT22;13961;51.178;4.448;2024-03-07T01:33:05;10.40;99.90
25949;DHT22;13961;51.178;4.448;2024-03-07T01:35:30;10.30;99.90
25949;DHT22;13961;51.178;4.448;2024-03-07T01:37:56;10.30;99.90
25949;DHT22;13961;51.178;4.448;2024-03-07T01:40:22;10.30;99.90
25949;DHT22;13961;51.178;4.448;2024-03-07T01:42:49;10.20;99.90
25949;DHT22;13961;51.178;4.448;2024-03-07T01:45:16;10.30;99.90
25949;DHT22;13961;51.178;4.448;2024-03-07T01:47:46;10.60;99.90
25949;DHT22;13961;51.178;4.448;2024-03-07T01:50:12;10.60;99.90
25949;DHT22;13961;51.178;4.448;2024-03-07T01:52:40;10.70;99.90
25949;DHT22;13961;51.178;4.448;2024-03-07T01:55:07;10.70;99.90
25949;DHT22;13961;51.178;4.448;2024-03-07T01:57:35;10.70;99.90
25949;DHT22;13961;51.178;4.448;2024-03-07T02:00:01;10.70;99.90
25949;DHT22;13961;51.178;4.448;2024-03-07T02:02:30;10.70;99.90
25949;DHT22;13961;51.178;4.448;2024-03-07T02:04:55;10.60;99.90
25949;DHT22;13961;51.178;4.448;2024-03-07T02:07:21;10.60;99.90
25949;DHT22;13961;51.178;4.448;2024-03-07T02:09:47;10.50;99.90
25949;DHT22;13961;51.178;4.448;2024-03-07T02:12:12;10.50;99.90
25949;DHT22;13961;51.178;4.448;2024-03-07T02:14:38;10.50;99.90
25949;DHT22;13961;51.178;4.448;2024-03-07T02:17:03;10.50;99.90
25949;DHT22;13961;51.178;4.448;2024-03-07T02:19:29;10.50;99.90
25949;DHT22;13961;51.178;4.448;2024-03-07T02:21:57;10.40;99.90
25949;DHT22;13961;51.178;4.448;2024-03-07T02:24:24;10.40;99.90
25949;DHT22;13961;51.178;4.448;2024-03-07T02:26:50;10.30;99.90
25949;DHT22;13961;51.178;4.448;2024-03-07T02:29:15;10.30;99.90
25949;DHT22;13961;51.178;4.448;2024-03-07T02:31:41;10.30;99.90
25949;DHT22;13961;51.178;4.448;2024-03-07T02:34:07;10.40;99.90
25949;DHT22;13961;51.178;4.448;2024-03-07T02:36:35;10.30;99.90
25949;DHT22;13961;51.178;4.448;2024-03-07T02:39:01;10.30;99.90
25949;DHT22;13961;51.178;4.448;2024-03-07T02:41:27;10.30;99.90
25949;DHT22;13961;51.178;4.448;2024-03-07T02:43:52;10.30;99.90
25949;DHT22;13961;51.178;4.448;2024-03-07T02:46:18;10.30;99.90
25949;DHT22;13961;51.178;4.448;2024-03-07T02:48:44;10.20;99.90
25949;DHT22;13961;51.178;4.448;2024-03-07T02:51:10;10.10;99.90
25949;DHT22;13961;51.178;4.448;2024-03-07T02:53:37;10.10;99.90
25949;DHT22;13961;51.178;4.448;2024-03-07T02:56:04;10.10;99.90
25949;DHT22;13961;51.178;4.448;2024-03-07T02:58:33;10.20;99.90
25949;DHT22;13961;51.178;4.448;2024-03-07T03:01:00;10.00;99.90
25949;DHT22;13961;51.178;4.448;2024-03-07T03:03:28;10.10;99.90
25949;DHT22;13961;51.178;4.448;2024-03-07T03:05:55;10.10;99.90
25949;DHT22;13961;51.178;4.448;2024-03-07T03:08:20;10.10;99.90
25949;DHT22;13961;51.178;4.448;2024-03-07T03:10:46;10.10;99.90
25949;DHT22;13961;51.178;4.448;2024-03-07T03:13:11;10.00;99.90
25949;DHT22;13961;51.178;4.448;2024-03-07T03:15:38;10.10;99.90
25949;DHT22;13961;51.178;4.448;2024-03-07T03:18:04;9.90;99.90
25949;DHT22;13961;51.178;4.448;2024-03-07T03:20:31;9.80;99.90
25949;DHT22;13961;51.178;4.448;2024-03-07T03:23:00;9.80;99.90
25949;DHT22;13961;51.178;4.448;2024-03-07T03:25:28;9.80;99.90
25949;DHT22;13961;51.178;4.448;2024-03-07T03:27:54;9.80;99.90
25949;DHT22;13961;51.178;4.448;2024-03-07T03:30:20;9.90;99.90
25949;DHT22;13961;51.178;4.448;2024-03-07T03:32:47;9.90;99.90
25949;DHT22;13961;51.178;4.448;2024-03-07T03:35:14;9.80;99.90
25949;DHT22;13961;51.178;4.448;2024-03-07T03:37:42;9.80;99.90
25949;DHT22;13961;51.178;4.448;2024-03-07T03:40:09;9.80;99.90
25949;DHT22;13961;51.178;4.448;2024-03-07T03:42:38;9.80;99.90
25949;DHT22;13961;51.178;4.448;2024-03-07T03:45:05;9.60;99.90
25949;DHT22;13961;51.178;4.448;2024-03-07T03:47:38;9.70;99.90
25949;DHT22;13961;51.178;4.448;2024-03-07T03:50:04;9.90;99.90
25949;DHT22;13961;51.178;4.448;2024-03-07T03:52:31;9.60;99.90
25949;DHT22;13961;51.178;4.448;2024-03-07T03:54:57;9.40;99.90
25949;DHT22;13961;51.178;4.448;2024-03-07T03:57:24;9.10;99.90
25949;DHT22;13961;51.178;4.448;2024-03-07T03:59:50;9.00;99.90
25949;DHT22;13961;51.178;4.448;2024-03-07T04:02:15;8.90;99.90
25949;DHT22;13961;51.178;4.448;2024-03-07T04:04:42;8.90;99.90
25949;DHT22;13961;51.178;4.448;2024-03-07T04:07:08;8.80;99.90
25949;DHT22;13961;51.178;4.448;2024-03-07T04:09:33;8.80;99.90
25949;DHT22;13961;51.178;4.448;2024-03-07T04:11:59;9.30;99.90
25949;DHT22;13961;51.178;4.448;2024-03-07T04:14:25;9.40;99.90
25949;DHT22;13961;51.178;4.448;2024-03-07T04:16:51;9.50;99.90
25949;DHT22;13961;51.178;4.448;2024-03-07T04:19:22;9.50;99.90
25949;DHT22;13961;51.178;4.448;2024-03-07T04:21:47;9.50;99.90
25949;DHT22;13961;51.178;4.448;2024-03-07T04:24:13;9.50;99.90
25949;DHT22;13961;51.178;4.448;2024-03-07T04:26:39;9.30;99.90
25949;DHT22;13961;51.178;4.448;2024-03-07T04:29:07;9.20;99.90
25949;DHT22;13961;51.178;4.448;2024-03-07T04:31:34;9.00;99.90
25949;DHT22;13961;51.178;4.448;2024-03-07T04:34:00;8.90;99.90
25949;DHT22;13961;51.178;4.448;2024-03-07T04:36:25;8.90;99.90
25949;DHT22;13961;51.178;4.448;2024-03-07T04:38:52;8.70;99.90
25949;DHT22;13961;51.178;4.448;2024-03-07T04:41:18;8.60;99.90
25949;DHT22;13961;51.178;4.448;2024-03-07T04:43:44;8.60;99.90
25949;DHT22;13961;51.178;4.448;2024-03-07T04:46:10;8.60;99.90
25949;DHT22;13961;51.178;4.448;2024-03-07T04:48:36;8.70;99.90
25949;DHT22;13961;51.178;4.448;2024-03-07T04:51:02;8.50;99.90
25949;DHT22;13961;51.178;4.448;2024-03-07T04:53:29;8.70;99.90
25949;DHT22;13961;51.178;4.448;2024-03-07T04:55:55;8.70;99.90
25949;DHT22;13961;51.178;4.448;2024-03-07T04:58:21;8.70;99.90
25949;DHT22;13961;51.178;4.448;2024-03-07T05:00:47;8.50;99.90
25949;DHT22;13961;51.178;4.448;2024-03-07T05:03:13;8.50;99.90
25949;DHT22;13961;51.178;4.448;2024-03-07T05:05:38;8.50;99.90
25949;DHT22;13961;51.178;4.448;2024-03-07T05:08:06;8.60;99.90
25949;DHT22;13961;51.178;4.448;2024-03-07T05:10:32;8.40;99.90
25949;DHT22;13961;51.178;4.448;2024-03-07T05:12:57;8.40;99.90
25949;DHT22;13961;51.178;4.448;2024-03-07T05:15:24;8.40;99.90
25949;DHT22;13961;51.178;4.448;2024-03-07T05:17:52;8.30;99.90
25949;DHT22;13961;51.178;4.448;2024-03-07T05:20:18;8.20;99.90
25949;DHT22;13961;51.178;4.448;2024-03-07T05:22:43;8.10;99.90
25949;DHT22;13961;51.178;4.448;2024-03-07T05:25:18;8.10;99.90
25949;DHT22;13961;51.178;4.448;2024-03-07T05:27:45;7.90;99.90
25949;DHT22;13961;51.178;4.448;2024-03-07T05:30:11;8.00;99.90
25949;DHT22;13961;51.178;4.448;2024-03-07T05:32:39;8.00;99.90
25949;DHT22;13961;51.178;4.448;2024-03-07T05:35:06;8.00;99.90
25949;DHT22;13961;51.178;4.448;2024-03-07T05:37:31;8.00;99.90
25949;DHT22;13961;51.178;4.448;2024-03-07T05:39:57;8.00;99.90
25949;DHT22;13961;51.178;4.448;2024-03-07T05:42:23;8.10;99.90
25949;DHT22;13961;51.178;4.448;2024-03-07T05:44:50;8.10;99.90
25949;DHT22;13961;51.178;4.448;2024-03-07T05:47:16;8.10;99.90
25949;DHT22;13961;51.178;4.448;2024-03-07T05:49:43;8.20;99.90
25949;DHT22;13961;51.178;4.448;2024-03-07T05:52:09;8.20;99.90
25949;DHT22;13961;51.178;4.448;2024-03-07T05:54:35;8.30;99.90
25949;DHT22;13961;51.178;4.448;2024-03-07T05:57:01;8.10;99.90
25949;DHT22;13961;51.178;4.448;2024-03-07T05:59:27;8.20;99.90
25949;DHT22;13961;51.178;4.448;2024-03-07T06:01:57;8.20;99.90
25949;DHT22;13961;51.178;4.448;2024-03-07T06:04:23;8.30;99.90
25949;DHT22;13961;51.178;4.448;2024-03-07T06:06:48;8.50;99.90
25949;DHT22;13961;51.178;4.448;2024-03-07T06:09:14;8.10;99.90
25949;DHT22;13961;51.178;4.448;2024-03-07T06:11:40;8.20;99.90
25949;DHT22;13961;51.178;4.448;2024-03-07T06:14:09;8.40;99.90
25949;DHT22;13961;51.178;4.448;2024-03-07T06:16:38;6.90;99.90
25949;DHT22;13961;51.178;4.448;2024-03-07T06:19:05;5.90;99.90
25949;DHT22;13961;51.178;4.448;2024-03-07T06:21:36;5.50;99.90
25949;DHT22;13961;51.178;4.448;2024-03-07T06:24:03;5.10;99.90
25949;DHT22;13961;51.178;4.448;2024-03-07T06:26:33;5.00;99.90
25949;DHT22;13961;51.178;4.448;2024-03-07T06:29:03;5.20;99.90
25949;DHT22;13961;51.178;4.448;2024-03-07T06:31:30;5.50;99.90
25949;DHT22;13961;51.178;4.448;2024-03-07T06:33:56;5.60;99.90
25949;DHT22;13961;51.178;4.448;2024-03-07T06:36:22;5.60;99.90
25949;DHT22;13961;51.178;4.448;2024-03-07T06:38:48;5.70;99.90
25949;DHT22;13961;51.178;4.448;2024-03-07T06:41:16;6.00;99.90
25949;DHT22;13961;51.178;4.448;2024-03-07T06:43:43;6.10;99.90
25949;DHT22;13961;51.178;4.448;2024-03-07T06:46:10;5.90;99.90
25949;DHT22;13961;51.178;4.448;2024-03-07T06:48:38;6.00;99.90
25949;DHT22;13961;51.178;4.448;2024-03-07T06:51:05;6.00;99.90
25949;DHT22;13961;51.178;4.448;2024-03-07T06:53:31;5.40;99.90
25949;DHT22;13961;51.178;4.448;2024-03-07T06:55:57;5.50;99.90
25949;DHT22;13961;51.178;4.448;2024-03-07T06:58:23;5.70;99.90
25949;DHT22;13961;51.178;4.448;2024-03-07T07:00:49;5.70;99.90
25949;DHT22;13961;51.178;4.448;2024-03-07T07:03:19;5.60;99.90
25949;DHT22;13961;51.178;4.448;2024-03-07T07:05:46;5.60;99.90
25949;DHT22;13961;51.178;4.448;2024-03-07T07:08:11;5.60;99.90
25949;DHT22;13961;51.178;4.448;2024-03-07T07:10:39;5.60;99.90
25949;DHT22;13961;51.178;4.448;2024-03-07T07:13:06;5.20;99.90
25949;DHT22;13961;51.178;4.448;2024-03-07T07:15:32;5.40;99.90
25949;DHT22;13961;51.178;4.448;2024-03-07T07:17:58;5.60;99.90
25949;DHT22;13961;51.178;4.448;2024-03-07T07:20:25;5.50;99.90
25949;DHT22;13961;51.178;4.448;2024-03-07T07:22:50;5.50;99.90
25949;DHT22;13961;51.178;4.448;2024-03-07T07:25:16;5.60;99.90
25949;DHT22;13961;51.178;4.448;2024-03-07T07:27:45;5.60;99.90
25949;DHT22;13961;51.178;4.448;2024-03-07T07:30:12;5.80;99.90
25949;DHT22;13961;51.178;4.448;2024-03-07T07:32:38;5.90;99.90
25949;DHT22;13961;51.178;4.448;2024-03-07T07:35:05;5.70;99.90
25949;DHT22;13961;51.178;4.448;2024-03-07T07:37:35;5.90;99.90
25949;DHT22;13961;51.178;4.448;2024-03-07T07:40:02;6.00;99.90
25949;DHT22;13961;51.178;4.448;2024-03-07T07:42:29;5.70;99.90
25949;DHT22;13961;51.178;4.448;2024-03-07T07:44:54;5.70;99.90
25949;DHT22;13961;51.178;4.448;2024-03-07T07:47:20;5.70;99.90
25949;DHT22;13961;51.178;4.448;2024-03-07T07:49:46;6.00;99.90
25949;DHT22;13961;51.178;4.448;2024-03-07T07:52:12;6.40;99.90
25949;DHT22;13961;51.178;4.448;2024-03-07T07:54:42;6.30;99.90
25949;DHT22;13961;51.178;4.448;2024-03-07T07:57:08;6.50;99.90
25949;DHT22;13961;51.178;4.448;2024-03-07T07:59:33;6.30;99.90
25949;DHT22;13961;51.178;4.448;2024-03-07T08:01:59;6.40;99.90
25949;DHT22;13961;51.178;4.448;2024-03-07T08:04:25;6.20;99.90
25949;DHT22;13961;51.178;4.448;2024-03-07T08:06:50;6.50;99.90
25949;DHT22;13961;51.178;4.448;2024-03-07T08:09:17;6.80;99.90
25949;DHT22;13961;51.178;4.448;2024-03-07T08:11:42;6.50;99.90
25949;DHT22;13961;51.178;4.448;2024-03-07T08:14:08;6.90;99.90
25949;DHT22;13961;51.178;4.448;2024-03-07T08:16:34;7.10;99.90
25949;DHT22;13961;51.178;4.448;2024-03-07T08:18:59;6.90;99.90
25949;DHT22;13961;51.178;4.448;2024-03-07T08:21:25;6.80;99.90
25949;DHT22;13961;51.178;4.448;2024-03-07T08:23:51;7.20;99.90
25949;DHT22;13961;51.178;4.448;2024-03-07T08:26:17;7.30;99.90
25949;DHT22;13961;51.178;4.448;2024-03-07T08:28:42;7.60;99.90
25949;DHT22;13961;51.178;4.448;2024-03-07T08:31:08;7.60;99.90
25949;DHT22;13961;51.178;4.448;2024-03-07T08:33:35;7.80;99.90
25949;DHT22;13961;51.178;4.448;2024-03-07T08:36:00;7.90;99.90
25949;DHT22;13961;51.178;4.448;2024-03-07T08:38:26;7.80;99.90
25949;DHT22;13961;51.178;4.448;2024-03-07T08:40:52;8.20;99.90
25949;DHT22;13961;51.178;4.448;2024-03-07T08:43:18;8.60;99.90
25949;DHT22;13961;51.178;4.448;2024-03-07T08:45:44;8.90;99.90
25949;DHT22;13961;51.178;4.448;2024-03-07T08:48:09;9.40;99.90
25949;DHT22;13961;51.178;4.448;2024-03-07T08:50:35;9.20;99.90
25949;DHT22;13961;51.178;4.448;2024-03-07T08:53:03;9.60;99.90
25949;DHT22;13961;51.178;4.448;2024-03-07T08:55:30;9.80;99.90
25949;DHT22;13961;51.178;4.448;2024-03-07T08:57:56;9.60;99.90
25949;DHT22;13961;51.178;4.448;2024-03-07T09:00:22;9.50;99.90
25949;DHT22;13961;51.178;4.448;2024-03-07T09:05:20;8.80;99.90
25949;DHT22;13961;51.178;4.448;2024-03-07T09:07:47;8.90;99.90
25949;DHT22;13961;51.178;4.448;2024-03-07T09:10:14;8.60;99.90
25949;DHT22;13961;51.178;4.448;2024-03-07T09:12:50;8.70;99.90
25949;DHT22;13961;51.178;4.448;2024-03-07T09:15:15;8.70;99.90
25949;DHT22;13961;51.178;4.448;2024-03-07T09:17:46;8.60;99.90
25949;DHT22;13961;51.178;4.448;2024-03-07T09:20:13;8.50;99.90
25949;DHT22;13961;51.178;4.448;2024-03-07T09:22:45;8.70;99.90
25949;DHT22;13961;51.178;4.448;2024-03-07T09:25:13;8.60;99.90
25949;DHT22;13961;51.178;4.448;2024-03-07T09:27:39;8.50;99.90
25949;DHT22;13961;51.178;4.448;2024-03-07T09:30:07;8.60;99.90
25949;DHT22;13961;51.178;4.448;2024-03-07T09:32:40;8.90;99.90
25949;DHT22;13961;51.178;4.448;2024-03-07T09:35:08;9.20;99.90
25949;DHT22;13961;51.178;4.448;2024-03-07T09:37:40;9.40;99.90
25949;DHT22;13961;51.178;4.448;2024-03-07T09:40:07;9.10;99.90
25949;DHT22;13961;51.178;4.448;2024-03-07T09:42:34;9.10;99.90
25949;DHT22;13961;51.178;4.448;2024-03-07T09:45:02;9.20;99.90
25949;DHT22;13961;51.178;4.448;2024-03-07T09:47:30;9.20;99.90
25949;DHT22;13961;51.178;4.448;2024-03-07T09:49:57;9.00;99.90
25949;DHT22;13961;51.178;4.448;2024-03-07T09:52:24;8.90;99.90
25949;DHT22;13961;51.178;4.448;2024-03-07T09:54:51;9.00;99.90
25949;DHT22;13961;51.178;4.448;2024-03-07T09:57:17;9.30;99.90
25949;DHT22;13961;51.178;4.448;2024-03-07T09:59:44;9.60;99.90
25949;DHT22;13961;51.178;4.448;2024-03-07T10:02:13;9.90;99.90
25949;DHT22;13961;51.178;4.448;2024-03-07T10:04:44;9.40;99.90
25949;DHT22;13961;51.178;4.448;2024-03-07T10:07:15;9.40;99.90
25949;DHT22;13961;51.178;4.448;2024-03-07T10:09:42;9.60;99.90
25949;DHT22;13961;51.178;4.448;2024-03-07T10:12:09;9.70;99.90
25949;DHT22;13961;51.178;4.448;2024-03-07T10:14:51;9.80;99.90
25949;DHT22;13961;51.178;4.448;2024-03-07T10:17:19;9.90;99.90
25949;DHT22;13961;51.178;4.448;2024-03-07T10:19:48;9.80;99.90
25949;DHT22;13961;51.178;4.448;2024-03-07T10:22:18;9.80;99.90
25949;DHT22;13961;51.178;4.448;2024-03-07T10:24:52;9.70;99.90
25949;DHT22;13961;51.178;4.448;2024-03-07T10:27:19;9.80;99.90
25949;DHT22;13961;51.178;4.448;2024-03-07T10:29:51;9.90;99.90
25949;DHT22;13961;51.178;4.448;2024-03-07T10:32:21;9.90;99.90
25949;DHT22;13961;51.178;4.448;2024-03-07T10:34:47;10.00;99.90
25949;DHT22;13961;51.178;4.448;2024-03-07T10:37:14;10.00;99.90
25949;DHT22;13961;51.178;4.448;2024-03-07T10:39:49;10.10;99.90
25949;DHT22;13961;51.178;4.448;2024-03-07T10:42:16;9.90;99.90
25949;DHT22;13961;51.178;4.448;2024-03-07T10:44:46;10.00;99.90
25949;DHT22;13961;51.178;4.448;2024-03-07T10:47:20;10.00;99.90
25949;DHT22;13961;51.178;4.448;2024-03-07T10:52:43;10.10;99.90
25949;DHT22;13961;51.178;4.448;2024-03-07T10:58:20;10.40;99.90
25949;DHT22;13961;51.178;4.448;2024-03-07T11:00:49;10.70;99.90
25949;DHT22;13961;51.178;4.448;2024-03-07T11:03:16;10.50;99.90
25949;DHT22;13961;51.178;4.448;2024-03-07T11:05:46;10.40;99.90
25949;DHT22;13961;51.178;4.448;2024-03-07T11:08:13;10.70;99.90
25949;DHT22;13961;51.178;4.448;2024-03-07T11:10:40;10.30;99.90
25949;DHT22;13961;51.178;4.448;2024-03-07T11:13:10;10.20;99.90
25949;DHT22;13961;51.178;4.448;2024-03-07T11:15:41;10.30;99.90
25949;DHT22;13961;51.178;4.448;2024-03-07T11:18:07;10.40;99.90
25949;DHT22;13961;51.178;4.448;2024-03-07T11:20:39;10.70;99.90
25949;DHT22;13961;51.178;4.448;2024-03-07T11:23:31;10.50;99.90
25949;DHT22;13961;51.178;4.448;2024-03-07T11:26:10;10.40;99.90
25949;DHT22;13961;51.178;4.448;2024-03-07T11:28:37;10.50;99.90
25949;DHT22;13961;51.178;4.448;2024-03-07T11:31:13;10.50;99.90
25949;DHT22;13961;51.178;4.448;2024-03-07T11:33:39;10.40;99.90
25949;DHT22;13961;51.178;4.448;2024-03-07T11:36:12;10.40;99.90
25949;DHT22;13961;51.178;4.448;2024-03-07T11:38:44;10.70;99.90
25949;DHT22;13961;51.178;4.448;2024-03-07T11:41:11;10.70;99.90
25949;DHT22;13961;51.178;4.448;2024-03-07T11:43:40;10.80;99.90
25949;DHT22;13961;51.178;4.448;2024-03-07T11:46:06;11.00;99.90
25949;DHT22;13961;51.178;4.448;2024-03-07T11:48:40;11.10;99.90
25949;DHT22;13961;51.178;4.448;2024-03-07T11:51:07;11.00;99.90
25949;DHT22;13961;51.178;4.448;2024-03-07T11:53:39;11.10;99.90
25949;DHT22;13961;51.178;4.448;2024-03-07T11:56:05;11.30;99.90
25949;DHT22;13961;51.178;4.448;2024-03-07T11:58:38;11.00;99.90
25949;DHT22;13961;51.178;4.448;2024-03-07T12:01:06;11.20;99.90
25949;DHT22;13961;51.178;4.448;2024-03-07T12:03:36;10.80;99.90
25949;DHT22;13961;51.178;4.448;2024-03-07T12:06:03;10.60;99.90
25949;DHT22;13961;51.178;4.448;2024-03-07T12:08:29;10.80;99.90
25949;DHT22;13961;51.178;4.448;2024-03-07T12:10:55;10.90;99.90
25949;DHT22;13961;51.178;4.448;2024-03-07T12:13:22;10.80;99.90
25949;DHT22;13961;51.178;4.448;2024-03-07T12:15:50;10.70;99.90
25949;DHT22;13961;51.178;4.448;2024-03-07T12:18:21;10.80;99.90
25949;DHT22;13961;51.178;4.448;2024-03-07T12:20:48;10.70;99.90
25949;DHT22;13961;51.178;4.448;2024-03-07T12:23:19;10.90;99.90
25949;DHT22;13961;51.178;4.448;2024-03-07T12:25:47;10.90;99.90
25949;DHT22;13961;51.178;4.448;2024-03-07T12:28:14;10.70;99.90
25949;DHT22;13961;51.178;4.448;2024-03-07T12:33:13;11.00;99.90
25949;DHT22;13961;51.178;4.448;2024-03-07T12:35:49;10.80;99.90
25949;DHT22;13961;51.178;4.448;2024-03-07T12:38:15;11.10;99.90
25949;DHT22;13961;51.178;4.448;2024-03-07T12:40:45;11.70;99.90
25949;DHT22;13961;51.178;4.448;2024-03-07T12:43:22;11.80;99.90
25949;DHT22;13961;51.178;4.448;2024-03-07T12:45:51;11.40;99.90
25949;DHT22;13961;51.178;4.448;2024-03-07T12:48:20;11.30;99.90
25949;DHT22;13961;51.178;4.448;2024-03-07T12:50:50;11.50;99.90
25949;DHT22;13961;51.178;4.448;2024-03-07T12:53:25;11.60;99.90
25949;DHT22;13961;51.178;4.448;2024-03-07T12:55:51;11.90;99.90
25949;DHT22;13961;51.178;4.448;2024-03-07T12:58:20;11.90;99.90
25949;DHT22;13961;51.178;4.448;2024-03-07T13:00:48;11.80;99.90
25949;DHT22;13961;51.178;4.448;2024-03-07T13:03:14;11.60;99.90
25949;DHT22;13961;51.178;4.448;2024-03-07T13:05:40;11.60;99.90
25949;DHT22;13961;51.178;4.448;2024-03-07T13:08:08;11.70;99.90
25949;DHT22;13961;51.178;4.448;2024-03-07T13:10:38;11.70;99.90
25949;DHT22;13961;51.178;4.448;2024-03-07T13:13:04;11.60;99.90
25949;DHT22;13961;51.178;4.448;2024-03-07T13:15:30;11.50;99.90
25949;DHT22;13961;51.178;4.448;2024-03-07T13:17:56;11.30;99.90
25949;DHT22;13961;51.178;4.448;2024-03-07T13:20:21;11.10;99.90
25949;DHT22;13961;51.178;4.448;2024-03-07T13:22:52;10.80;99.90
25949;DHT22;13961;51.178;4.448;2024-03-07T13:25:25;10.60;99.90
25949;DHT22;13961;51.178;4.448;2024-03-07T13:28:11;10.90;99.90
25949;DHT22;13961;51.178;4.448;2024-03-07T13:30:45;10.90;99.90
25949;DHT22;13961;51.178;4.448;2024-03-07T13:33:14;11.10;99.90
25949;DHT22;13961;51.178;4.448;2024-03-07T13:35:40;11.20;99.90
25949;DHT22;13961;51.178;4.448;2024-03-07T13:38:06;11.40;99.90
25949;DHT22;13961;51.178;4.448;2024-03-07T13:40:33;11.50;99.90
25949;DHT22;13961;51.178;4.448;2024-03-07T13:43:05;11.40;99.90
25949;DHT22;13961;51.178;4.448;2024-03-07T13:45:33;11.60;99.90
25949;DHT22;13961;51.178;4.448;2024-03-07T13:48:07;11.60;99.90
25949;DHT22;13961;51.178;4.448;2024-03-07T13:50:34;11.40;99.90
25949;DHT22;13961;51.178;4.448;2024-03-07T13:53:01;11.30;99.90
25949;DHT22;13961;51.178;4.448;2024-03-07T14:01:43;11.10;99.90
25949;DHT22;13961;51.178;4.448;2024-03-07T14:04:58;11.00;99.90
25949;DHT22;13961;51.178;4.448;2024-03-07T14:29:26;10.90;99.90
25949;DHT22;13961;51.178;4.448;2024-03-07T14:32:00;11.20;99.90
25949;DHT22;13961;51.178;4.448;2024-03-07T14:37:23;11.40;99.90
25949;DHT22;13961;51.178;4.448;2024-03-07T14:39:50;11.40;99.90
25949;DHT22;13961;51.178;4.448;2024-03-07T14:42:19;11.40;99.90
25949;DHT22;13961;51.178;4.448;2024-03-07T14:44:45;11.30;99.90
25949;DHT22;13961;51.178;4.448;2024-03-07T14:47:18;11.20;99.90
25949;DHT22;13961;51.178;4.448;2024-03-07T14:49:44;11.20;99.90
25949;DHT22;13961;51.178;4.448;2024-03-07T14:52:10;11.40;99.90
25949;DHT22;13961;51.178;4.448;2024-03-07T14:54:37;11.50;99.90
25949;DHT22;13961;51.178;4.448;2024-03-07T14:57:04;11.50;99.90
25949;DHT22;13961;51.178;4.448;2024-03-07T14:59:31;11.50;99.90
25949;DHT22;13961;51.178;4.448;2024-03-07T15:01:58;11.60;99.90
25949;DHT22;13961;51.178;4.448;2024-03-07T15:04:26;11.60;99.90
25949;DHT22;13961;51.178;4.448;2024-03-07T15:06:53;11.70;99.90
25949;DHT22;13961;51.178;4.448;2024-03-07T15:09:22;11.70;99.90
25949;DHT22;13961;51.178;4.448;2024-03-07T15:11:48;11.40;99.90
25949;DHT22;13961;51.178;4.448;2024-03-07T15:14:14;11.20;99.90
25949;DHT22;13961;51.178;4.448;2024-03-07T15:16:41;10.90;99.90
25949;DHT22;13961;51.178;4.448;2024-03-07T15:19:07;10.80;99.90
25949;DHT22;13961;51.178;4.448;2024-03-07T15:21:37;10.90;99.90
25949;DHT22;13961;51.178;4.448;2024-03-07T15:24:03;11.00;99.90
25949;DHT22;13961;51.178;4.448;2024-03-07T15:26:30;11.10;99.90
25949;DHT22;13961;51.178;4.448;2024-03-07T15:28:59;11.00;99.90
25949;DHT22;13961;51.178;4.448;2024-03-07T15:31:26;11.00;99.90
25949;DHT22;13961;51.178;4.448;2024-03-07T15:33:52;11.00;99.90
25949;DHT22;13961;51.178;4.448;2024-03-07T15:36:18;11.00;99.90
25949;DHT22;13961;51.178;4.448;2024-03-07T15:38:45;11.00;99.90
25949;DHT22;13961;51.178;4.448;2024-03-07T15:41:10;11.00;99.90
25949;DHT22;13961;51.178;4.448;2024-03-07T15:43:41;10.90;99.90
25949;DHT22;13961;51.178;4.448;2024-03-07T15:46:16;10.90;99.90
25949;DHT22;13961;51.178;4.448;2024-03-07T15:48:44;11.10;99.90
25949;DHT22;13961;51.178;4.448;2024-03-07T15:51:11;11.20;99.90
25949;DHT22;13961;51.178;4.448;2024-03-07T15:53:40;11.10;99.90
25949;DHT22;13961;51.178;4.448;2024-03-07T15:56:07;11.00;99.90
25949;DHT22;13961;51.178;4.448;2024-03-07T15:58:33;11.10;99.90
25949;DHT22;13961;51.178;4.448;2024-03-07T16:00:59;11.10;99.90
25949;DHT22;13961;51.178;4.448;2024-03-07T16:03:25;11.00;99.90
25949;DHT22;13961;51.178;4.448;2024-03-07T16:05:51;10.90;99.90
25949;DHT22;13961;51.178;4.448;2024-03-07T16:08:21;11.00;99.90
25949;DHT22;13961;51.178;4.448;2024-03-07T16:10:47;11.10;99.90
25949;DHT22;13961;51.178;4.448;2024-03-07T16:13:13;10.90;99.90
25949;DHT22;13961;51.178;4.448;2024-03-07T16:15:43;10.80;99.90
25949;DHT22;13961;51.178;4.448;2024-03-07T16:18:10;10.70;99.90
25949;DHT22;13961;51.178;4.448;2024-03-07T16:20:36;10.80;99.90